createdAt,value
2019-01-29T00:01:38.206Z,21.27
2019-01-29T00:05:00.353Z,22.17
2019-01-29T00:08:22.544Z,22.47
2019-01-29T00:11:45.225Z,21.73
2019-01-29T00:15:08.261Z,20.77
2019-01-29T00:18:30.865Z,21.30
2019-01-29T00:21:53.357Z,22.90
2019-01-29T00:25:16.378Z,22.20
2019-01-29T00:28:38.962Z,22.57
2019-01-29T00:32:01.213Z,21.17
2019-01-29T00:35:23.767Z,20.93
2019-01-29T00:38:46.198Z,20.70
2019-01-29T00:42:08.298Z,21.73
2019-01-29T00:45:30.704Z,22.33
2019-01-29T00:48:53.049Z,20.33
2019-01-29T00:52:15.246Z,22.67
2019-01-29T00:55:37.931Z,23.00
2019-01-29T00:59:00.388Z,22.20
2019-01-29T01:02:22.849Z,21.50
2019-01-29T01:05:45.248Z,19.03
2019-01-29T01:09:08.959Z,18.80
2019-01-29T01:12:31.718Z,17.93
2019-01-29T01:15:54.283Z,16.40
2019-01-29T01:19:16.814Z,15.13
2019-01-29T01:22:39.612Z,13.80
2019-01-29T01:26:01.808Z,11.83
2019-01-29T01:29:24.244Z,11.57
2019-01-29T01:32:47.215Z,10.00
2019-01-29T01:36:09.918Z,10.10
2019-01-29T01:39:32.324Z,9.60
2019-01-29T01:42:55.106Z,10.67
2019-01-29T01:46:17.271Z,10.97
2019-01-29T01:49:39.780Z,11.97
2019-01-29T01:53:02.133Z,13.33
2019-01-29T01:56:24.728Z,13.47
2019-01-29T01:59:46.965Z,14.40
2019-01-29T02:03:09.189Z,14.80
2019-01-29T02:06:31.760Z,14.93
2019-01-29T02:09:54.173Z,15.13
2019-01-29T02:13:16.588Z,15.87
2019-01-29T02:16:38.679Z,16.20
2019-01-29T02:20:01.393Z,14.87
2019-01-29T02:23:23.811Z,15.10
2019-01-29T02:26:46.536Z,14.27
2019-01-29T02:30:12.695Z,12.53
2019-01-29T02:33:35.149Z,12.67
2019-01-29T02:36:57.752Z,11.23
2019-01-29T02:40:26.048Z,7.80
2019-01-29T02:43:48.489Z,10.17
2019-01-29T02:47:11.035Z,9.10
2019-01-29T02:50:33.236Z,9.50
2019-01-29T02:53:55.365Z,9.20
2019-01-29T02:57:17.790Z,10.37
2019-01-29T03:00:40.211Z,9.80
2019-01-29T03:04:02.579Z,9.97
2019-01-29T03:07:25.024Z,9.10
2019-01-29T03:10:47.180Z,9.60
2019-01-29T03:14:09.379Z,8.23
2019-01-29T03:17:32.163Z,9.20
2019-01-29T03:20:54.732Z,9.00
2019-01-29T03:24:17.490Z,9.80
2019-01-29T03:27:40.248Z,9.90
2019-01-29T03:31:02.553Z,9.80
2019-01-29T03:34:25.125Z,10.03
2019-01-29T03:37:47.730Z,11.50
2019-01-29T03:41:09.965Z,11.40
2019-01-29T03:44:32.716Z,11.70
2019-01-29T03:47:55.180Z,12.67
2019-01-29T03:51:17.872Z,14.70
2019-01-29T03:54:40.703Z,13.30
2019-01-29T03:58:03.248Z,13.70
2019-01-29T04:01:25.843Z,15.27
2019-01-29T04:04:48.548Z,15.83
2019-01-29T04:08:11.229Z,16.20
2019-01-29T04:11:34.140Z,15.93
2019-01-29T04:14:57.076Z,16.83
2019-01-29T04:18:19.769Z,16.00
2019-01-29T04:21:42.532Z,16.17
2019-01-29T04:25:05.550Z,16.47
2019-01-29T04:28:28.378Z,16.57
2019-01-29T04:31:50.801Z,17.40
2019-01-29T04:35:13.413Z,16.83
2019-01-29T04:38:35.478Z,15.57
2019-01-29T04:41:58.149Z,16.80
2019-01-29T04:45:20.672Z,17.47
2019-01-29T04:48:43.534Z,17.90
2019-01-29T04:52:06.302Z,15.70
2019-01-29T04:55:28.749Z,15.33
2019-01-29T04:58:51.436Z,15.47
2019-01-29T05:02:14.179Z,13.43
2019-01-29T05:05:36.648Z,13.90
2019-01-29T05:08:59.370Z,14.47
2019-01-29T05:12:21.990Z,13.10
2019-01-29T05:15:44.672Z,13.70
2019-01-29T05:19:07.242Z,13.70
2019-01-29T05:22:29.718Z,12.93
2019-01-29T05:25:52.170Z,11.37
2019-01-29T05:29:14.588Z,12.10
2019-01-29T05:32:37.033Z,12.60
2019-01-29T05:36:00.308Z,11.53
2019-01-29T05:39:23.032Z,12.67
2019-01-29T05:42:45.874Z,11.57
2019-01-29T05:46:08.582Z,11.57
2019-01-29T05:49:31.104Z,11.33
2019-01-29T05:52:54.108Z,11.93
2019-01-29T05:56:16.780Z,11.50
2019-01-29T05:59:39.028Z,11.13
2019-01-29T06:03:01.305Z,11.03
2019-01-29T06:06:23.738Z,10.90
2019-01-29T06:09:46.517Z,10.40
2019-01-29T06:13:09.254Z,10.53
2019-01-29T06:16:31.758Z,10.33
2019-01-29T06:19:53.916Z,10.10
2019-01-29T06:23:16.404Z,10.80
2019-01-29T06:26:38.874Z,12.87
2019-01-29T06:30:01.472Z,10.37
2019-01-29T06:33:23.922Z,10.03
2019-01-29T06:36:46.257Z,10.27
2019-01-29T06:40:10.430Z,10.30
2019-01-29T06:43:32.820Z,10.23
2019-01-29T06:46:55.223Z,12.37
2019-01-29T06:50:20.264Z,10.27
2019-01-29T06:53:42.604Z,9.27
2019-01-29T06:57:05.307Z,9.20
2019-01-29T07:00:29.962Z,8.87
2019-01-29T07:03:52.322Z,8.53
2019-01-29T07:07:14.728Z,8.77
2019-01-29T07:10:37.217Z,8.40
2019-01-29T07:14:00.698Z,9.47
2019-01-29T07:17:27.637Z,9.07
2019-01-29T07:20:51.847Z,9.80
2019-01-29T07:24:14.629Z,9.23
2019-01-29T07:27:36.831Z,8.80
2019-01-29T07:30:59.622Z,10.00
2019-01-29T07:34:22.091Z,10.57
2019-01-29T07:37:44.169Z,11.67
2019-01-29T07:41:06.886Z,11.87
2019-01-29T07:44:29.309Z,13.30
2019-01-29T07:47:51.718Z,10.90
2019-01-29T07:51:14.509Z,12.47
2019-01-29T07:54:36.957Z,13.17
2019-01-29T07:57:59.326Z,12.00
2019-01-29T08:01:21.862Z,11.37
2019-01-29T08:04:44.322Z,11.23
2019-01-29T08:08:06.947Z,12.43
2019-01-29T08:11:29.066Z,13.03
2019-01-29T08:14:51.283Z,12.07
2019-01-29T08:18:13.573Z,11.90
2019-01-29T08:21:36.286Z,11.07
2019-01-29T08:25:01.806Z,11.27
2019-01-29T08:28:22.449Z,11.07
2019-01-29T08:31:45.211Z,11.80
2019-01-29T08:35:07.799Z,11.00
2019-01-29T08:38:30.183Z,11.80
2019-01-29T08:41:53.041Z,11.10
2019-01-29T08:45:15.957Z,11.63
2019-01-29T08:48:38.621Z,11.33
2019-01-29T08:52:00.849Z,11.57
2019-01-29T08:55:23.634Z,11.50
2019-01-29T08:58:46.204Z,10.90
2019-01-29T09:02:08.773Z,10.33
2019-01-29T09:05:30.950Z,11.07
2019-01-29T09:08:53.679Z,10.77
2019-01-29T09:12:15.772Z,11.67
2019-01-29T09:15:38.477Z,11.17
2019-01-29T09:19:01.166Z,10.20
2019-01-29T09:22:23.555Z,9.80
2019-01-29T09:25:45.967Z,10.47
2019-01-29T09:29:08.405Z,9.53
2019-01-29T09:32:31.160Z,10.20
2019-01-29T09:35:53.541Z,10.33
2019-01-29T09:39:16.344Z,9.90
2019-01-29T09:42:39.080Z,10.23
2019-01-29T09:46:01.996Z,11.03
2019-01-29T09:49:24.099Z,10.43
2019-01-29T09:52:46.793Z,10.83
2019-01-29T09:56:09.565Z,10.83
2019-01-29T09:59:31.992Z,10.93
2019-01-29T10:02:54.448Z,10.73
2019-01-29T10:06:16.930Z,10.83
2019-01-29T10:09:39.318Z,10.70
2019-01-29T10:13:01.566Z,11.87
2019-01-29T10:16:24.398Z,11.23
2019-01-29T10:19:47.396Z,10.00
2019-01-29T10:23:09.691Z,11.10
2019-01-29T10:26:32.306Z,11.30
2019-01-29T10:34:17.194Z,10.03
2019-01-29T10:37:39.711Z,9.27
2019-01-29T10:41:02.318Z,9.10
2019-01-29T10:44:24.796Z,9.60
2019-01-29T10:47:47.625Z,9.00
2019-01-29T10:51:10.087Z,9.47
2019-01-29T10:54:32.831Z,8.80
2019-01-29T10:57:55.252Z,8.90
2019-01-29T11:01:17.968Z,9.30
2019-01-29T11:04:40.734Z,9.63
2019-01-29T11:08:03.412Z,9.47
2019-01-29T11:11:26.263Z,10.20
2019-01-29T11:14:48.758Z,10.37
2019-01-29T11:18:13.579Z,11.30
2019-01-29T11:21:36.028Z,11.03
2019-01-29T11:24:58.737Z,10.30
2019-01-29T11:28:21.425Z,10.67
2019-01-29T11:31:44.374Z,11.90
2019-01-29T11:35:07.461Z,10.80
2019-01-29T11:38:29.895Z,11.97
2019-01-29T11:41:52.257Z,12.40
2019-01-29T11:45:18.346Z,12.13
2019-01-29T11:48:40.718Z,12.40
2019-01-29T11:52:03.377Z,11.73
2019-01-29T11:55:25.861Z,12.10
2019-01-29T11:58:48.436Z,12.57
2019-01-29T12:02:11.176Z,13.57
2019-01-29T12:05:33.936Z,13.57
2019-01-29T12:08:56.418Z,11.90
2019-01-29T12:12:19.144Z,11.53
2019-01-29T12:15:42.239Z,12.03
2019-01-29T12:19:05.085Z,12.10
2019-01-29T12:22:27.431Z,11.23
2019-01-29T12:25:49.939Z,9.67
2019-01-29T12:29:12.632Z,10.80
2019-01-29T12:32:35.283Z,9.37
2019-01-29T12:35:57.786Z,9.20
2019-01-29T12:39:20.336Z,8.27
2019-01-29T12:42:42.809Z,10.13
2019-01-29T12:46:06.277Z,7.87
2019-01-29T12:49:29.048Z,7.63
2019-01-29T12:52:58.327Z,7.00
2019-01-29T12:56:21.626Z,7.40
2019-01-29T12:59:44.492Z,7.10
2019-01-29T13:03:07.181Z,6.70
2019-01-29T13:06:29.693Z,6.20
2019-01-29T13:09:52.426Z,6.80
2019-01-29T13:13:15.529Z,6.27
2019-01-29T13:16:37.729Z,7.10
2019-01-29T13:20:00.287Z,7.83
2019-01-29T13:23:23.124Z,7.77
2019-01-29T13:26:45.856Z,6.60
2019-01-29T13:30:14.044Z,6.30
2019-01-29T13:33:36.669Z,7.10
2019-01-29T13:36:58.938Z,6.03
2019-01-29T13:40:21.261Z,6.47
2019-01-29T13:43:43.585Z,5.53
2019-01-29T13:47:06.601Z,6.93
2019-01-29T13:50:32.763Z,6.10
2019-01-29T13:53:55.544Z,6.30
2019-01-29T13:57:18.335Z,6.67
2019-01-29T14:00:41.158Z,7.03
2019-01-29T14:04:06.151Z,7.97
2019-01-29T14:07:27.925Z,8.00
2019-01-29T14:10:50.827Z,6.53
2019-01-29T14:14:13.662Z,8.13
2019-01-29T14:17:35.715Z,8.93
2019-01-29T14:20:59.010Z,6.80
2019-01-29T14:24:21.475Z,6.97
2019-01-29T14:27:44.145Z,7.00
2019-01-29T14:31:07.133Z,7.93
2019-01-29T14:34:29.930Z,6.83
2019-01-29T14:38:46.321Z,8.17
2019-01-29T14:42:08.471Z,7.27
2019-01-29T14:45:31.127Z,9.00
2019-01-29T14:48:53.687Z,8.10
2019-01-29T14:52:16.327Z,10.60
2019-01-29T14:55:38.582Z,9.10
2019-01-29T14:59:01.258Z,12.00
2019-01-29T15:02:23.677Z,7.50
2019-01-29T15:05:46.287Z,9.47
2019-01-29T15:09:11.470Z,11.57
2019-01-29T15:12:34.053Z,9.83
2019-01-29T15:16:01.917Z,13.40
2019-01-29T15:19:26.364Z,10.83
2019-01-29T15:22:49.195Z,11.43
2019-01-29T15:26:11.801Z,9.80
2019-01-29T15:29:34.565Z,10.70
2019-01-29T15:32:56.979Z,13.23
2019-01-29T15:36:19.524Z,10.23
2019-01-29T15:39:42.007Z,8.93
2019-01-29T15:43:04.817Z,9.17
2019-01-29T15:46:27.314Z,11.70
2019-01-29T15:49:49.837Z,11.50
2019-01-29T15:53:11.933Z,9.10
2019-01-29T15:56:34.571Z,8.77
2019-01-29T15:59:57.004Z,9.57
2019-01-29T16:03:19.709Z,10.33
2019-01-29T16:06:42.212Z,10.57
2019-01-29T16:10:07.018Z,10.07
2019-01-29T16:13:29.767Z,11.00
2019-01-29T16:16:52.209Z,9.97
2019-01-29T16:20:17.094Z,10.77
2019-01-29T16:23:39.465Z,9.73
2019-01-29T16:27:06.970Z,11.10
2019-01-29T16:30:27.605Z,11.40
2019-01-29T16:33:50.299Z,11.10
2019-01-29T16:37:13.194Z,11.47
2019-01-29T16:40:35.858Z,13.67
2019-01-29T16:43:58.536Z,11.43
2019-01-29T16:47:21.062Z,13.10
2019-01-29T16:50:43.503Z,12.67
2019-01-29T16:54:06.121Z,11.67
2019-01-29T16:57:31.881Z,14.60
2019-01-29T17:00:52.874Z,10.97
2019-01-29T17:04:15.693Z,11.33
2019-01-29T17:07:38.082Z,13.70
2019-01-29T17:11:00.231Z,12.00
2019-01-29T17:14:22.689Z,12.20
2019-01-29T17:17:45.223Z,12.10
2019-01-29T17:21:07.583Z,12.33
2019-01-29T17:24:30.350Z,11.03
2019-01-29T17:27:53.358Z,9.87
2019-01-29T17:31:16.516Z,10.47
2019-01-29T17:34:39.611Z,10.13
2019-01-29T17:38:01.985Z,10.00
2019-01-29T17:41:24.430Z,10.07
2019-01-29T17:44:46.830Z,10.43
2019-01-29T17:48:09.365Z,12.90
2019-01-29T17:51:31.556Z,10.80
2019-01-29T17:54:53.999Z,11.73
2019-01-29T17:58:16.622Z,10.93
2019-01-29T18:01:39.022Z,11.13
2019-01-29T18:05:01.682Z,10.83
2019-01-29T18:08:24.074Z,10.93
2019-01-29T18:11:46.398Z,10.97
2019-01-29T18:15:12.821Z,10.97
2019-01-29T18:18:34.994Z,11.37
2019-01-29T18:21:57.447Z,10.27
2019-01-29T18:25:20.054Z,10.40
2019-01-29T18:28:42.542Z,10.67
2019-01-29T18:32:05.394Z,10.43
2019-01-29T18:35:28.187Z,10.87
2019-01-29T18:38:50.838Z,10.83
2019-01-29T18:42:13.107Z,10.20
2019-01-29T18:45:35.708Z,9.87
2019-01-29T18:48:57.991Z,10.90
2019-01-29T18:52:20.262Z,10.27
2019-01-29T18:55:42.751Z,9.77
2019-01-29T18:59:04.954Z,9.63
2019-01-29T19:02:27.363Z,11.03
2019-01-29T19:05:50.252Z,9.07
2019-01-29T19:09:13.162Z,8.60
2019-01-29T19:12:35.724Z,8.97
2019-01-29T19:15:58.407Z,8.33
2019-01-29T19:19:20.781Z,8.13
2019-01-29T19:22:55.203Z,8.27
2019-01-29T19:26:17.879Z,8.97
2019-01-29T19:29:40.466Z,9.20
2019-01-29T19:33:03.120Z,9.73
2019-01-29T19:36:25.781Z,9.43
2019-01-29T19:39:48.557Z,9.40
2019-01-29T19:43:13.634Z,8.27
2019-01-29T19:46:35.233Z,9.17
2019-01-29T19:49:57.630Z,9.17
2019-01-29T19:53:20.342Z,8.20
2019-01-29T19:56:42.779Z,9.07
2019-01-29T20:00:08.374Z,9.23
2019-01-29T20:03:30.758Z,11.10
2019-01-29T20:06:52.904Z,8.73
2019-01-29T20:10:15.793Z,8.30
2019-01-29T20:13:39.369Z,9.93
2019-01-29T20:17:01.935Z,10.50
2019-01-29T20:20:27.249Z,10.40
2019-01-29T20:23:49.995Z,9.37
2019-01-29T20:27:12.414Z,9.83
2019-01-29T20:30:36.119Z,9.20
2019-01-29T20:33:58.853Z,9.03
2019-01-29T20:37:21.602Z,8.40
2019-01-29T20:40:44.124Z,8.40
2019-01-29T20:44:06.355Z,9.30
2019-01-29T20:47:28.787Z,10.37
2019-01-29T20:50:51.154Z,9.10
2019-01-29T20:54:13.307Z,8.50
2019-01-29T20:57:35.714Z,9.77
2019-01-29T21:00:58.099Z,9.57
2019-01-29T21:04:20.818Z,8.23
2019-01-29T21:07:43.554Z,8.57
2019-01-29T21:11:06.096Z,9.40
2019-01-29T21:14:28.769Z,9.80
2019-01-29T21:17:51.426Z,10.30
2019-01-29T21:21:13.977Z,9.90
2019-01-29T21:24:37.109Z,10.13
2019-01-29T21:27:59.690Z,9.03
2019-01-29T21:31:22.092Z,9.33
2019-01-29T21:34:44.865Z,10.43
2019-01-29T21:38:07.716Z,11.23
2019-01-29T21:41:30.409Z,10.50
2019-01-29T21:44:53.205Z,10.40
2019-01-29T21:48:16.310Z,9.83
2019-01-29T21:51:38.974Z,10.60
2019-01-29T21:55:01.298Z,11.40
2019-01-29T21:58:23.633Z,12.07
2019-01-29T22:01:46.065Z,12.57
2019-01-29T22:05:10.663Z,11.67
2019-01-29T22:08:32.811Z,11.47
2019-01-29T22:11:55.158Z,11.90
2019-01-29T22:15:17.916Z,11.57
2019-01-29T22:18:40.038Z,12.00
2019-01-29T22:22:02.737Z,14.13
2019-01-29T22:25:25.016Z,10.57
2019-01-29T22:28:47.689Z,10.63
2019-01-29T22:32:10.356Z,11.23
2019-01-29T22:35:32.750Z,11.63
2019-01-29T22:38:54.855Z,11.47
2019-01-29T22:42:17.325Z,11.60
2019-01-29T22:45:39.992Z,13.00
2019-01-29T22:49:02.161Z,13.33
2019-01-29T22:52:24.306Z,14.83
2019-01-29T22:55:46.938Z,15.13
2019-01-29T22:59:09.493Z,16.50
2019-01-29T23:02:32.097Z,16.50
2019-01-29T23:05:59.514Z,16.77
2019-01-29T23:09:21.925Z,17.00
2019-01-29T23:12:44.565Z,16.47
2019-01-29T23:16:07.300Z,16.60
2019-01-29T23:19:29.677Z,17.10
2019-01-29T23:22:52.134Z,16.77
2019-01-29T23:26:20.644Z,19.23
2019-01-29T23:29:43.852Z,17.83
2019-01-29T23:33:06.704Z,19.83
2019-01-29T23:36:29.184Z,19.67
2019-01-29T23:39:52.078Z,18.93
2019-01-29T23:43:19.406Z,19.17
2019-01-29T23:46:41.837Z,18.37
2019-01-29T23:50:05.030Z,20.93
2019-01-29T23:53:27.430Z,22.40
2019-01-29T23:56:50.101Z,20.97
